Terminal Aerodrome Forecast
Issued by NWS

Home | Current Version | Previous Version | Text Only | Print | Product List | Glossary On
Versions: 1 2 3 4 5 6 7 8 9 10 11 12 13 14 15 16 17 18 19 20 21 22 23 24 25 26 27 28 29 30 31 32 33 34 35 36 37 38 39 40 41
000
FTUS42 KCAE 260028 AAA
TAFDNL
TAF AMD
KDNL 260028Z 2600/2624 VRB05KT 4SM -SHRA SCT020 BKN035
      TEMPO 2600/2602 2SM SHRA OVC020
     FM260300 VRB04KT 6SM BR BKN025
     FM260600 VRB03KT 4SM BR OVC006
     FM261400 19004KT P6SM BKN015
     FM261700 19008KT P6SM BKN035=

USA.gov is the U.S. government's official web portal to all federal, state and local government web resources and services.